Sierra Queen — D5IV7 — position and weather

sailwx.info

Track history (hours):
 
Tides and Currents Weather Stations Pressure Air Temp Water Temp Dewpoint Dewpoint Depression Visibility Wind Speed Wind Dir Waves Ship Positions

Sierra Queen

Last reported at 2018-Aug-09 18:58 UTC. Time now 2018-Aug-20 16:19 UTC.
Position N 27°42' W 015°18'.
Warning: this ship's position is 10 days out of date.

Length 134 m; draft 8 m.

Type: Cargo ship. MMSI: 636017004.

Date/timePositionNaut miles runAvg speedWind from/ knotsBaromVisibWave heightAir tempDewpointWater temp
2018-Aug-09 18:58N 27°42' W 015°18'715.8
2018-Aug-09 18:30N 27°49' W 015°18'815.4
2018-Aug-09 18:00N 27°57' W 015°18'815.3
2018-Aug-09 17:31N 28°04' W 015°21'611.9
2018-Aug-09 17:00N 28°09' W 015°24'0 0.0
2018-Aug-09 16:30N 28°09' W 015°24'0 0.0
2018-Aug-09 16:00N 28°09' W 015°24'0 0.0
2018-Aug-09 15:30N 28°09' W 015°24'0 0.0
2018-Aug-09 15:00N 28°09' W 015°24'0 0.0
2018-Aug-09 14:30N 28°09' W 015°24'0 0.0
2018-Aug-09 14:00N 28°09' W 015°24'0 0.0
2018-Aug-09 13:30N 28°09' W 015°24'0 0.0
2018-Aug-09 13:00N 28°09' W 015°24'0 0.0
2018-Aug-09 12:30N 28°09' W 015°24'0 0.0
2018-Aug-09 12:00N 28°09' W 015°24'0 0.0
2018-Aug-09 11:30N 28°09' W 015°24'0 0.0
2018-Aug-09 11:00N 28°09' W 015°24'0 0.0
2018-Aug-09 10:21N 28°09' W 015°24'0 0.0
2018-Aug-09 09:51N 28°09' W 015°24'0 0.0
2018-Aug-09 09:30N 28°09' W 015°24'0 0.0
2018-Aug-09 09:00N 28°09' W 015°24'1 1.5
2018-Aug-09 08:31N 28°09' W 015°24'1 2.6
2018-Aug-09 08:00N 28°08' W 015°22'1 1.0
2018-Aug-09 07:25N 28°09' W 015°22'0 1.1
2018-Aug-09 07:00N 28°09' W 015°22'1 1.1
2018-Aug-09 06:29N 28°10' W 015°22'4 9.3
2018-Aug-09 06:00N 28°14' W 015°21'2 3.4
2018-Aug-09 05:30N 28°16' W 015°20'1 1.5
2018-Aug-09 05:00N 28°17' W 015°20'1 1.4
2018-Aug-09 04:30N 28°17' W 015°20'4 7.9
2018-Aug-09 04:00N 28°13' W 015°21'5 9.6
2018-Aug-09 03:30N 28°09' W 015°22'1 1.2
2018-Aug-09 03:00N 28°09' W 015°22'2 4.3
2018-Aug-09 02:30N 28°12' W 015°22'612.5
2018-Aug-09 02:01N 28°18' W 015°20'713.7
2018-Aug-09 01:30N 28°24' W 015°18'713.6
2018-Aug-09 01:00N 28°31' W 015°16'713.5
2018-Aug-09 00:30N 28°37' W 015°14'5 9.8
2018-Aug-09 00:00N 28°42' W 015°13'0 1.0
2018-Aug-08 23:30N 28°43' W 015°13'0 0.9
2018-Aug-08 23:00N 28°43' W 015°13'0 0.9
2018-Aug-08 22:30N 28°43' W 015°12'0 0.8
2018-Aug-08 22:00N 28°44' W 015°12'0 0.8
2018-Aug-08 21:30N 28°44' W 015°12'0 0.7
2018-Aug-08 21:00N 28°44' W 015°12'0 0.7
2018-Aug-08 20:29N 28°45' W 015°12'1 1.2
2018-Aug-08 20:00N 28°45' W 015°12'612.9
2018-Aug-08 19:30N 28°52' W 015°10'714.7
2018-Aug-08 19:00N 28°59' W 015°08'914.7
2018-Aug-08 18:22N 29°08' W 015°05'514.8
2018-Aug-08 18:00N 29°13' W 015°03'714.9
2018-Aug-08 17:30N 29°20' W 015°01'714.9
2018-Aug-08 17:00N 29°27' W 014°59'714.8
2018-Aug-08 16:30N 29°34' W 014°57'714.7
2018-Aug-08 16:00N 29°42' W 014°55'814.9
2018-Aug-08 15:28N 29°49' W 014°52'714.9
2018-Aug-08 14:59N 29°56' W 014°50'715.2
2018-Aug-08 14:30N 30°03' W 014°48'815.1
2018-Aug-08 14:00N 30°11' W 014°46'815.0
2018-Aug-08 13:29N 30°18' W 014°44'715.0
2018-Aug-08 13:00N 30°25' W 014°42'1115.0
2018-Aug-08 12:17N 30°35' W 014°39'2115.0
2018-Aug-08 10:52N 30°56' W 014°32'714.9
2018-Aug-08 10:25N 31°03' W 014°30'1315.1
2018-Aug-08 09:35N 31°15' W 014°26'714.8
2018-Aug-08 09:05N 31°22' W 014°24'714.8
2018-Aug-08 08:37N 31°29' W 014°22'214.8
2018-Aug-08 08:27N 31°31' W 014°22'3015.2
2018-Aug-08 06:31N 31°60' W 014°13'015.1
2018-Aug-08 06:30N 31°60' W 014°13'814.8
2018-Aug-08 06:00N 32°07' W 014°11'815.0
2018-Aug-08 05:26N 32°15' W 014°08'715.0
2018-Aug-08 04:59N 32°22' W 014°06'715.1
2018-Aug-08 04:30N 32°28' W 014°04'1115.2
2018-Aug-08 03:49N 32°39' W 014°00'5915.2
2018-Aug-07 23:55N 33°36' W 013°43'2515.0
2018-Aug-07 22:15N 34°00' W 013°35'10215.0
2018-Aug-07 15:28N 35°39' W 013°04'715.1
2018-Aug-07 15:00N 35°46' W 013°02'1315.2
2018-Aug-07 14:09N 35°58' W 012°57'415.0
2018-Aug-07 13:51N 36°02' W 012°56'515.1
2018-Aug-07 13:30N 36°07' W 012°54'5614.7
2018-Aug-07 09:41N 37°02' W 012°37'315.0
2018-Aug-07 09:29N 37°05' W 012°36'25915.1
2018-Aug-06 16:21N 41°15' W 011°12'18315.2
2018-Aug-06 04:20N 44°10' W 009°60'31614.9
2018-Aug-05 07:11N 48°40' W 006°01'714.6
2018-Aug-05 06:43N 48°45' W 005°55'914.5
2018-Aug-05 06:05N 48°53' W 005°48'114.6
2018-Aug-05 05:59N 48°54' W 005°47'4515.6
2018-Aug-05 03:06N 49°17' W 004°47'515.7
2018-Aug-05 02:46N 49°19' W 004°40'1215.6
2018-Aug-05 01:59N 49°25' W 004°24'1515.3
2018-Aug-05 00:59N 49°33' W 004°04'1414.7
2018-Aug-05 00:03N 49°40' W 003°45'1314.2
2018-Aug-04 23:07N 49°46' W 003°27'214.1
2018-Aug-04 23:00N 49°47' W 003°25'714.3
2018-Aug-04 22:30N 49°51' W 003°16'714.5
2018-Aug-04 22:00N 49°55' W 003°07'714.9
2018-Aug-04 21:31N 49°59' W 002°57'815.2
2018-Aug-04 20:59N 50°02' W 002°45'715.7
2018-Aug-04 20:30N 50°03' W 002°34'1116.4
2018-Aug-04 19:51N 50°07' W 002°18'717.0
2018-Aug-04 19:26N 50°09' W 002°07'8316.0
2018-Aug-04 14:16N 50°31' W 000°02'813.7
2018-Aug-04 13:43N 50°33' E 000°09'513.6
2018-Aug-04 13:21N 50°35' E 000°17'513.6
2018-Aug-04 13:00N 50°36' E 000°24'714.1
2018-Aug-04 12:30N 50°39' E 000°34'714.8
2018-Aug-04 12:00N 50°43' E 000°44'815.8
2018-Aug-04 11:30N 50°47' E 000°54'816.4
2018-Aug-04 11:00N 50°52' E 001°05'816.9
2018-Aug-04 10:30N 50°58' E 001°14'917.2
2018-Aug-04 10:00N 51°03' E 001°25'817.0
2018-Aug-04 09:30N 51°08' E 001°36'917.6
2018-Aug-04 09:00N 51°14' E 001°46'817.0
2018-Aug-04 08:30N 51°22' E 001°53'815.4
2018-Aug-04 08:00N 51°28' E 001°59'714.0
2018-Aug-04 07:30N 51°34' E 002°06'713.9
2018-Aug-04 07:00N 51°39' E 002°13'713.6
2018-Aug-04 06:31N 51°44' E 002°20'713.8
2018-Aug-04 06:00N 51°49' E 002°28'713.9
2018-Aug-04 05:30N 51°54' E 002°35'714.1
2018-Aug-04 05:00N 51°60' E 002°43'714.5
2018-Aug-04 04:30N 52°05' E 002°50'815.0
2018-Aug-04 04:00N 52°11' E 002°58'815.6
2018-Aug-04 03:30N 52°17' E 003°06'815.9
2018-Aug-04 03:01N 52°22' E 003°16'815.7
2018-Aug-04 02:30N 52°27' E 003°26'816.0
2018-Aug-04 02:01N 52°30' E 003°38'815.8
2018-Aug-04 01:30N 52°31' E 003°51'815.8
2018-Aug-04 01:00N 52°31' E 004°04'815.3
2018-Aug-04 00:30N 52°30' E 004°17'714.1
2018-Aug-04 00:00N 52°29' E 004°28'510.2
2018-Aug-03 23:30N 52°28' E 004°36'1 1.1
2018-Aug-03 23:00N 52°28' E 004°37'3 6.4
2018-Aug-03 22:30N 52°27' E 004°42'4 8.0
2018-Aug-03 22:00N 52°25' E 004°48'1 1.2
2018-Aug-03 21:30N 52°25' E 004°49'0 0.0
2018-Aug-03 21:00N 52°25' E 004°49'0 0.0
2018-Aug-03 20:30N 52°25' E 004°49'0 0.0
2018-Aug-03 20:00N 52°25' E 004°49'0 0.0
2018-Aug-03 19:30N 52°25' E 004°49'0 0.0
2018-Aug-03 19:00N 52°25' E 004°49'0 0.0
2018-Aug-03 18:30N 52°25' E 004°49'0 0.0
2018-Aug-03 18:00N 52°25' E 004°49'0 0.0
2018-Aug-03 17:30N 52°25' E 004°49'0 0.0
2018-Aug-03 17:00N 52°25' E 004°49'0 0.0
2018-Aug-03 16:30N 52°25' E 004°49'0 0.0
2018-Aug-03 16:00N 52°25' E 004°49'0 0.0
2018-Aug-03 15:30N 52°25' E 004°49'0 0.0
2018-Aug-03 14:57N 52°25' E 004°49'0 0.0
2018-Aug-03 14:30N 52°25' E 004°49'0 0.0
2018-Aug-03 14:00N 52°25' E 004°49'0 0.0
2018-Aug-03 13:30N 52°25' E 004°49'0 0.0
2018-Aug-03 13:00N 52°25' E 004°49'0 0.0
2018-Aug-03 12:30N 52°25' E 004°49'0 0.0
2018-Aug-03 12:00N 52°25' E 004°49'0 0.0
2018-Aug-03 11:30N 52°25' E 004°49'0 0.0
2018-Aug-03 11:00N 52°25' E 004°49'0 0.0
2018-Aug-03 10:27N 52°25' E 004°49'0 0.0
2018-Aug-03 10:00N 52°25' E 004°49'0 0.0
2018-Aug-03 09:30N 52°25' E 004°49'0 0.0
2018-Aug-03 09:00N 52°25' E 004°49'0 0.0
2018-Aug-03 08:27N 52°25' E 004°49'0 0.0
2018-Aug-03 07:57N 52°25' E 004°49'0 0.0
2018-Aug-03 07:30N 52°25' E 004°49'0 0.0
2018-Aug-03 07:00N 52°25' E 004°49'0 0.0
2018-Aug-03 06:27N 52°25' E 004°49'0 0.0
2018-Aug-03 05:57N 52°25' E 004°49'0 0.0
2018-Aug-03 05:30N 52°25' E 004°49'0 0.0
2018-Aug-03 04:57N 52°25' E 004°49'0 0.0
2018-Aug-03 04:30N 52°25' E 004°49'0 0.0
2018-Aug-03 04:00N 52°25' E 004°49'0 0.0
2018-Aug-03 03:30N 52°25' E 004°49'0 0.0
2018-Aug-03 02:57N 52°25' E 004°49'0 0.0
2018-Aug-03 02:30N 52°25' E 004°49'0 0.0
2018-Aug-03 02:00N 52°25' E 004°49'0 0.0
2018-Aug-03 01:30N 52°25' E 004°49'0 0.0
2018-Aug-03 01:00N 52°25' E 004°49'0 0.0
2018-Aug-03 00:30N 52°25' E 004°49'0 0.0
2018-Aug-03 00:00N 52°25' E 004°49'0 0.0
2018-Aug-02 23:30N 52°25' E 004°49'0 0.0
2018-Aug-02 23:00N 52°25' E 004°49'0 0.0
2018-Aug-02 22:30N 52°25' E 004°49'0 0.0
2018-Aug-02 22:00N 52°25' E 004°49'0 0.0
2018-Aug-02 21:24N 52°25' E 004°49'0 0.0
2018-Aug-02 21:00N 52°25' E 004°49'0 0.0
2018-Aug-02 20:30N 52°25' E 004°49'0 0.0
2018-Aug-02 20:00N 52°25' E 004°49'0 0.0
2018-Aug-02 19:30N 52°25' E 004°49'0 0.0
2018-Aug-02 18:57N 52°25' E 004°49'0 0.0
2018-Aug-02 18:30N 52°25' E 004°49'0 0.0
2018-Aug-02 18:00N 52°25' E 004°49'0 0.0
2018-Aug-02 17:30N 52°25' E 004°49'0 0.0
2018-Aug-02 17:00N 52°25' E 004°49'0 0.0
2018-Aug-02 16:30N 52°25' E 004°49'0 0.0
2018-Aug-02 16:00N 52°25' E 004°49'0 0.0
2018-Aug-02 15:30N 52°25' E 004°49'0 0.0
2018-Aug-02 14:57N 52°25' E 004°49'0 0.0
2018-Aug-02 14:30N 52°25' E 004°49'0 0.0
2018-Aug-02 14:00N 52°25' E 004°49'0 0.0
2018-Aug-02 13:30N 52°25' E 004°49'0 0.0
2018-Aug-02 13:00N 52°25' E 004°49'0 0.0
2018-Aug-02 12:30N 52°25' E 004°49'0 0.0
2018-Aug-02 12:00N 52°25' E 004°49'0 0.0
2018-Aug-02 11:30N 52°25' E 004°49'0 0.0
2018-Aug-02 11:00N 52°25' E 004°49'0 0.0
2018-Aug-02 10:30N 52°25' E 004°49'0 0.0
2018-Aug-02 10:00N 52°25' E 004°49'0 0.0
2018-Aug-02 09:30N 52°25' E 004°49'0 0.0
2018-Aug-02 08:54N 52°25' E 004°49'0 0.0
2018-Aug-02 08:27N 52°25' E 004°49'0 0.0
2018-Aug-02 08:00N 52°25' E 004°49'0 0.0
2018-Aug-02 07:30N 52°25' E 004°49'0 0.0
2018-Aug-02 07:00N 52°25' E 004°49'0 0.0
2018-Aug-02 06:30N 52°25' E 004°49'0 0.0
2018-Aug-02 06:00N 52°25' E 004°49'0 0.0
2018-Aug-02 05:30N 52°25' E 004°49'0 0.0
2018-Aug-02 05:00N 52°25' E 004°49'0 0.0
2018-Aug-02 04:30N 52°25' E 004°49'0 0.0
2018-Aug-02 04:00N 52°25' E 004°49'0 0.0
2018-Aug-02 03:30N 52°25' E 004°49'0 0.0
2018-Aug-02 03:00N 52°25' E 004°49'0 0.0
2018-Aug-02 02:30N 52°25' E 004°49'0 0.0
2018-Aug-02 02:00N 52°25' E 004°49'0 0.0
2018-Aug-02 01:30N 52°25' E 004°49'0 0.0
2018-Aug-02 01:00N 52°25' E 004°49'0 0.0
2018-Aug-02 00:30N 52°25' E 004°49'0 0.0
2018-Aug-02 00:00N 52°25' E 004°49'0 0.0
2018-Aug-01 23:30N 52°25' E 004°49'0 0.0
2018-Aug-01 23:00N 52°25' E 004°49'0 0.0
2018-Aug-01 22:27N 52°25' E 004°49'0 0.0
2018-Aug-01 22:00N 52°25' E 004°49'0 0.0
2018-Aug-01 21:30N 52°25' E 004°49'0 0.0
2018-Aug-01 21:00N 52°25' E 004°49'0 0.0
2018-Aug-01 20:30N 52°25' E 004°49'0 0.0
2018-Aug-01 19:57N 52°25' E 004°49'0 0.0
2018-Aug-01 19:30N 52°25' E 004°49'0 0.0
2018-Aug-01 18:57N 52°25' E 004°49'0 0.0
2018-Aug-01 18:30N 52°25' E 004°49'0 0.0
2018-Aug-01 18:00N 52°25' E 004°49'0 0.0
2018-Aug-01 17:30N 52°25' E 004°49'0 0.0
2018-Aug-01 17:00N 52°25' E 004°49'0 0.0
2018-Aug-01 16:30N 52°25' E 004°49'0 0.0
2018-Aug-01 16:00N 52°25' E 004°49'0 0.0
2018-Aug-01 15:30N 52°25' E 004°49'0 0.0
2018-Aug-01 15:00N 52°25' E 004°49'0 0.0
2018-Aug-01 14:00N 52°25' E 004°49'0 0.0
2018-Aug-01 13:30N 52°25' E 004°49'0 0.0
2018-Aug-01 13:00N 52°25' E 004°49'0 0.0
2018-Aug-01 12:30N 52°25' E 004°49'0 0.0
2018-Aug-01 12:00N 52°25' E 004°49'0 0.0
2018-Aug-01 11:30N 52°25' E 004°49'0 0.0
2018-Aug-01 11:00N 52°25' E 004°49'0 0.0
2018-Aug-01 10:30N 52°25' E 004°49'0 0.0
2018-Aug-01 09:57N 52°25' E 004°49'0 0.0
2018-Aug-01 09:30N 52°25' E 004°49'0 0.0
2018-Aug-01 09:00N 52°25' E 004°49'0 0.0
2018-Aug-01 08:27N 52°25' E 004°49'0 0.0
2018-Aug-01 08:00N 52°25' E 004°49'0 0.0
2018-Aug-01 07:27N 52°25' E 004°49'0 0.0
2018-Aug-01 07:00N 52°25' E 004°49'0 0.0
2018-Aug-01 06:30N 52°25' E 004°49'0 0.0
2018-Aug-01 06:00N 52°25' E 004°49'0 0.0
2018-Aug-01 05:30N 52°25' E 004°49'0 0.0
2018-Aug-01 05:00N 52°25' E 004°49'0 0.0
2018-Aug-01 04:30N 52°25' E 004°49'0 0.0
2018-Aug-01 04:00N 52°25' E 004°49'0 0.0
2018-Aug-01 03:30N 52°25' E 004°49'0 0.0
2018-Aug-01 03:00N 52°25' E 004°49'0 0.0
2018-Aug-01 02:30N 52°25' E 004°49'0 0.0
2018-Aug-01 02:00N 52°25' E 004°49'0 0.0
2018-Aug-01 01:30N 52°25' E 004°49'0 0.0
2018-Aug-01 01:00N 52°25' E 004°49'0 0.0
2018-Jul-31 22:30N 52°25' E 004°49'0 0.0
2018-Jul-31 22:00N 52°25' E 004°49'0 0.0
2018-Jul-31 21:30N 52°25' E 004°49'0 0.0
2018-Jul-31 21:00N 52°25' E 004°49'0 0.0
2018-Jul-31 20:30N 52°25' E 004°49'0 0.0
2018-Jul-31 20:00N 52°25' E 004°49'0 0.0
2018-Jul-31 19:30N 52°25' E 004°49'0 0.0
2018-Jul-31 19:00N 52°25' E 004°49'0 0.0
2018-Jul-31 18:30N 52°25' E 004°49'0 0.0
2018-Jul-31 18:00N 52°25' E 004°49'0 0.0
2018-Jul-31 17:30N 52°25' E 004°49'0 0.0
2018-Jul-31 17:00N 52°25' E 004°49'0 0.0
2018-Jul-31 16:30N 52°25' E 004°49'0 0.0
2018-Jul-31 15:57N 52°25' E 004°49'0 0.0
2018-Jul-31 15:30N 52°25' E 004°49'0 0.0
2018-Jul-31 15:00N 52°25' E 004°49'0 0.0
2018-Jul-31 14:30N 52°25' E 004°49'0 0.0
2018-Jul-31 14:00N 52°25' E 004°49'0 0.0
2018-Jul-31 13:30N 52°25' E 004°49'0 0.0
2018-Jul-31 13:00N 52°25' E 004°49'0 0.0
2018-Jul-31 12:30N 52°25' E 004°49'0 0.0
2018-Jul-31 12:00N 52°25' E 004°49'0 0.0
2018-Jul-31 11:30N 52°25' E 004°49'0 0.0
2018-Jul-31 11:00N 52°25' E 004°49'0 0.0
2018-Jul-31 10:30N 52°25' E 004°49'0 0.0
2018-Jul-31 10:00N 52°25' E 004°49'0 0.0
2018-Jul-31 09:30N 52°25' E 004°49'0 0.0
2018-Jul-31 09:00N 52°25' E 004°49'0 0.0
2018-Jul-31 08:30N 52°25' E 004°49'0 0.0
2018-Jul-31 08:00N 52°25' E 004°49'0 0.0
2018-Jul-31 07:30N 52°25' E 004°49'0 0.0
2018-Jul-31 07:00N 52°25' E 004°49'0 0.0
2018-Jul-31 06:30N 52°25' E 004°49'0 0.0
2018-Jul-31 06:00N 52°25' E 004°49'0 0.0
2018-Jul-31 05:27N 52°25' E 004°49'0 0.0
2018-Jul-31 05:00N 52°25' E 004°49'0 0.0
2018-Jul-31 04:30N 52°25' E 004°49'0 0.0
2018-Jul-31 04:00N 52°25' E 004°49'0 0.0
2018-Jul-31 03:30N 52°25' E 004°49'0 0.0
2018-Jul-31 03:00N 52°25' E 004°49'0 0.0
2018-Jul-31 02:30N 52°25' E 004°49'0 0.0
2018-Jul-31 02:00N 52°25' E 004°49'0 0.0
2018-Jul-31 01:27N 52°25' E 004°49'0 0.0
2018-Jul-31 01:00N 52°25' E 004°49'0 0.0
2018-Jul-31 00:30N 52°25' E 004°49'0 0.0
2018-Jul-31 00:00N 52°25' E 004°49'0 0.0
2018-Jul-30 23:30N 52°25' E 004°49'0 0.0
2018-Jul-30 23:00N 52°25' E 004°49'0 0.0
2018-Jul-30 22:30N 52°25' E 004°49'0 0.0
2018-Jul-30 22:00N 52°25' E 004°49'0 0.0
2018-Jul-30 21:30N 52°25' E 004°49'0 0.0
2018-Jul-30 21:00N 52°25' E 004°49'0 0.0
2018-Jul-30 20:30N 52°25' E 004°49'0 0.0
2018-Jul-30 20:00N 52°25' E 004°49'0 0.0
2018-Jul-30 19:30N 52°25' E 004°49'0 0.0
2018-Jul-30 19:00N 52°25' E 004°49'  
Track history (hours):
 
Tides and Currents Weather Stations Pressure Air Temp Water Temp Dewpoint Dewpoint Depression Visibility Wind Speed Wind Dir Waves Ship Positions

Sierra Queen

Last reported at 2018-Aug-09 18:58 UTC. Time now 2018-Aug-20 16:19 UTC.
Position N 27°42' W 015°18'.
Warning: this ship's position is 10 days out of date.

Length 134 m; draft 8 m.

Type: Cargo ship. MMSI: 636017004.

Date/timePositionNaut miles runAvg speedWind from/ knotsBaromVisibWave heightAir tempDewpointWater temp
2018-Aug-09 18:58N 27°42' W 015°18'715.8
2018-Aug-09 18:30N 27°49' W 015°18'815.4
2018-Aug-09 18:00N 27°57' W 015°18'815.3
2018-Aug-09 17:31N 28°04' W 015°21'611.9
2018-Aug-09 17:00N 28°09' W 015°24'0 0.0
2018-Aug-09 16:30N 28°09' W 015°24'0 0.0
2018-Aug-09 16:00N 28°09' W 015°24'0 0.0
2018-Aug-09 15:30N 28°09' W 015°24'0 0.0
2018-Aug-09 15:00N 28°09' W 015°24'0 0.0
2018-Aug-09 14:30N 28°09' W 015°24'0 0.0
2018-Aug-09 14:00N 28°09' W 015°24'0 0.0
2018-Aug-09 13:30N 28°09' W 015°24'0 0.0
2018-Aug-09 13:00N 28°09' W 015°24'0 0.0
2018-Aug-09 12:30N 28°09' W 015°24'0 0.0
2018-Aug-09 12:00N 28°09' W 015°24'0 0.0
2018-Aug-09 11:30N 28°09' W 015°24'0 0.0
2018-Aug-09 11:00N 28°09' W 015°24'0 0.0
2018-Aug-09 10:21N 28°09' W 015°24'0 0.0
2018-Aug-09 09:51N 28°09' W 015°24'0 0.0
2018-Aug-09 09:30N 28°09' W 015°24'0 0.0
2018-Aug-09 09:00N 28°09' W 015°24'1 1.5
2018-Aug-09 08:31N 28°09' W 015°24'1 2.6
2018-Aug-09 08:00N 28°08' W 015°22'1 1.0
2018-Aug-09 07:25N 28°09' W 015°22'0 1.1
2018-Aug-09 07:00N 28°09' W 015°22'1 1.1
2018-Aug-09 06:29N 28°10' W 015°22'4 9.3
2018-Aug-09 06:00N 28°14' W 015°21'2 3.4
2018-Aug-09 05:30N 28°16' W 015°20'1 1.5
2018-Aug-09 05:00N 28°17' W 015°20'1 1.4
2018-Aug-09 04:30N 28°17' W 015°20'4 7.9
2018-Aug-09 04:00N 28°13' W 015°21'5 9.6
2018-Aug-09 03:30N 28°09' W 015°22'1 1.2
2018-Aug-09 03:00N 28°09' W 015°22'2 4.3
2018-Aug-09 02:30N 28°12' W 015°22'612.5
2018-Aug-09 02:01N 28°18' W 015°20'713.7
2018-Aug-09 01:30N 28°24' W 015°18'713.6
2018-Aug-09 01:00N 28°31' W 015°16'713.5
2018-Aug-09 00:30N 28°37' W 015°14'5 9.8
2018-Aug-09 00:00N 28°42' W 015°13'0 1.0
2018-Aug-08 23:30N 28°43' W 015°13'0 0.9
2018-Aug-08 23:00N 28°43' W 015°13'0 0.9
2018-Aug-08 22:30N 28°43' W 015°12'0 0.8
2018-Aug-08 22:00N 28°44' W 015°12'0 0.8
2018-Aug-08 21:30N 28°44' W 015°12'0 0.7
2018-Aug-08 21:00N 28°44' W 015°12'0 0.7
2018-Aug-08 20:29N 28°45' W 015°12'1 1.2
2018-Aug-08 20:00N 28°45' W 015°12'612.9
2018-Aug-08 19:30N 28°52' W 015°10'714.7
2018-Aug-08 19:00N 28°59' W 015°08'914.7
2018-Aug-08 18:22N 29°08' W 015°05'514.8
2018-Aug-08 18:00N 29°13' W 015°03'714.9
2018-Aug-08 17:30N 29°20' W 015°01'714.9
2018-Aug-08 17:00N 29°27' W 014°59'714.8
2018-Aug-08 16:30N 29°34' W 014°57'714.7
2018-Aug-08 16:00N 29°42' W 014°55'814.9
2018-Aug-08 15:28N 29°49' W 014°52'714.9
2018-Aug-08 14:59N 29°56' W 014°50'715.2
2018-Aug-08 14:30N 30°03' W 014°48'815.1
2018-Aug-08 14:00N 30°11' W 014°46'815.0
2018-Aug-08 13:29N 30°18' W 014°44'715.0
2018-Aug-08 13:00N 30°25' W 014°42'1115.0
2018-Aug-08 12:17N 30°35' W 014°39'2115.0
2018-Aug-08 10:52N 30°56' W 014°32'714.9
2018-Aug-08 10:25N 31°03' W 014°30'1315.1
2018-Aug-08 09:35N 31°15' W 014°26'714.8
2018-Aug-08 09:05N 31°22' W 014°24'714.8
2018-Aug-08 08:37N 31°29' W 014°22'214.8
2018-Aug-08 08:27N 31°31' W 014°22'3015.2
2018-Aug-08 06:31N 31°60' W 014°13'015.1
2018-Aug-08 06:30N 31°60' W 014°13'814.8
2018-Aug-08 06:00N 32°07' W 014°11'815.0
2018-Aug-08 05:26N 32°15' W 014°08'715.0
2018-Aug-08 04:59N 32°22' W 014°06'715.1
2018-Aug-08 04:30N 32°28' W 014°04'1115.2
2018-Aug-08 03:49N 32°39' W 014°00'5915.2
2018-Aug-07 23:55N 33°36' W 013°43'2515.0
2018-Aug-07 22:15N 34°00' W 013°35'10215.0
2018-Aug-07 15:28N 35°39' W 013°04'715.1
2018-Aug-07 15:00N 35°46' W 013°02'1315.2
2018-Aug-07 14:09N 35°58' W 012°57'415.0
2018-Aug-07 13:51N 36°02' W 012°56'515.1
2018-Aug-07 13:30N 36°07' W 012°54'5614.7
2018-Aug-07 09:41N 37°02' W 012°37'315.0
2018-Aug-07 09:29N 37°05' W 012°36'25915.1
2018-Aug-06 16:21N 41°15' W 011°12'18315.2
2018-Aug-06 04:20N 44°10' W 009°60'31614.9
2018-Aug-05 07:11N 48°40' W 006°01'714.6
2018-Aug-05 06:43N 48°45' W 005°55'914.5
2018-Aug-05 06:05N 48°53' W 005°48'114.6
2018-Aug-05 05:59N 48°54' W 005°47'4515.6
2018-Aug-05 03:06N 49°17' W 004°47'515.7
2018-Aug-05 02:46N 49°19' W 004°40'1215.6
2018-Aug-05 01:59N 49°25' W 004°24'1515.3
2018-Aug-05 00:59N 49°33' W 004°04'1414.7
2018-Aug-05 00:03N 49°40' W 003°45'1314.2
2018-Aug-04 23:07N 49°46' W 003°27'214.1
2018-Aug-04 23:00N 49°47' W 003°25'714.3
2018-Aug-04 22:30N 49°51' W 003°16'714.5
2018-Aug-04 22:00N 49°55' W 003°07'714.9
2018-Aug-04 21:31N 49°59' W 002°57'815.2
2018-Aug-04 20:59N 50°02' W 002°45'715.7
2018-Aug-04 20:30N 50°03' W 002°34'1116.4
2018-Aug-04 19:51N 50°07' W 002°18'717.0
2018-Aug-04 19:26N 50°09' W 002°07'8316.0
2018-Aug-04 14:16N 50°31' W 000°02'813.7
2018-Aug-04 13:43N 50°33' E 000°09'513.6
2018-Aug-04 13:21N 50°35' E 000°17'513.6
2018-Aug-04 13:00N 50°36' E 000°24'714.1
2018-Aug-04 12:30N 50°39' E 000°34'714.8
2018-Aug-04 12:00N 50°43' E 000°44'815.8
2018-Aug-04 11:30N 50°47' E 000°54'816.4
2018-Aug-04 11:00N 50°52' E 001°05'816.9
2018-Aug-04 10:30N 50°58' E 001°14'917.2
2018-Aug-04 10:00N 51°03' E 001°25'817.0
2018-Aug-04 09:30N 51°08' E 001°36'917.6
2018-Aug-04 09:00N 51°14' E 001°46'817.0
2018-Aug-04 08:30N 51°22' E 001°53'815.4
2018-Aug-04 08:00N 51°28' E 001°59'714.0
2018-Aug-04 07:30N 51°34' E 002°06'713.9
2018-Aug-04 07:00N 51°39' E 002°13'713.6
2018-Aug-04 06:31N 51°44' E 002°20'713.8
2018-Aug-04 06:00N 51°49' E 002°28'713.9
2018-Aug-04 05:30N 51°54' E 002°35'714.1
2018-Aug-04 05:00N 51°60' E 002°43'714.5
2018-Aug-04 04:30N 52°05' E 002°50'815.0
2018-Aug-04 04:00N 52°11' E 002°58'815.6
2018-Aug-04 03:30N 52°17' E 003°06'815.9
2018-Aug-04 03:01N 52°22' E 003°16'815.7
2018-Aug-04 02:30N 52°27' E 003°26'816.0
2018-Aug-04 02:01N 52°30' E 003°38'815.8
2018-Aug-04 01:30N 52°31' E 003°51'815.8
2018-Aug-04 01:00N 52°31' E 004°04'815.3
2018-Aug-04 00:30N 52°30' E 004°17'714.1
2018-Aug-04 00:00N 52°29' E 004°28'510.2
2018-Aug-03 23:30N 52°28' E 004°36'1 1.1
2018-Aug-03 23:00N 52°28' E 004°37'3 6.4
2018-Aug-03 22:30N 52°27' E 004°42'4 8.0
2018-Aug-03 22:00N 52°25' E 004°48'1 1.2
2018-Aug-03 21:30N 52°25' E 004°49'0 0.0
2018-Aug-03 21:00N 52°25' E 004°49'0 0.0
2018-Aug-03 20:30N 52°25' E 004°49'0 0.0
2018-Aug-03 20:00N 52°25' E 004°49'0 0.0
2018-Aug-03 19:30N 52°25' E 004°49'0 0.0
2018-Aug-03 19:00N 52°25' E 004°49'0 0.0
2018-Aug-03 18:30N 52°25' E 004°49'0 0.0
2018-Aug-03 18:00N 52°25' E 004°49'0 0.0
2018-Aug-03 17:30N 52°25' E 004°49'0 0.0
2018-Aug-03 17:00N 52°25' E 004°49'0 0.0
2018-Aug-03 16:30N 52°25' E 004°49'0 0.0
2018-Aug-03 16:00N 52°25' E 004°49'0 0.0
2018-Aug-03 15:30N 52°25' E 004°49'0 0.0
2018-Aug-03 14:57N 52°25' E 004°49'0 0.0
2018-Aug-03 14:30N 52°25' E 004°49'0 0.0
2018-Aug-03 14:00N 52°25' E 004°49'0 0.0
2018-Aug-03 13:30N 52°25' E 004°49'0 0.0
2018-Aug-03 13:00N 52°25' E 004°49'0 0.0
2018-Aug-03 12:30N 52°25' E 004°49'0 0.0
2018-Aug-03 12:00N 52°25' E 004°49'0 0.0
2018-Aug-03 11:30N 52°25' E 004°49'0 0.0
2018-Aug-03 11:00N 52°25' E 004°49'0 0.0
2018-Aug-03 10:27N 52°25' E 004°49'0 0.0
2018-Aug-03 10:00N 52°25' E 004°49'0 0.0
2018-Aug-03 09:30N 52°25' E 004°49'0 0.0
2018-Aug-03 09:00N 52°25' E 004°49'0 0.0
2018-Aug-03 08:27N 52°25' E 004°49'0 0.0
2018-Aug-03 07:57N 52°25' E 004°49'0 0.0
2018-Aug-03 07:30N 52°25' E 004°49'0 0.0
2018-Aug-03 07:00N 52°25' E 004°49'0 0.0
2018-Aug-03 06:27N 52°25' E 004°49'0 0.0
2018-Aug-03 05:57N 52°25' E 004°49'0 0.0
2018-Aug-03 05:30N 52°25' E 004°49'0 0.0
2018-Aug-03 04:57N 52°25' E 004°49'0 0.0
2018-Aug-03 04:30N 52°25' E 004°49'0 0.0
2018-Aug-03 04:00N 52°25' E 004°49'0 0.0
2018-Aug-03 03:30N 52°25' E 004°49'0 0.0
2018-Aug-03 02:57N 52°25' E 004°49'0 0.0
2018-Aug-03 02:30N 52°25' E 004°49'0 0.0
2018-Aug-03 02:00N 52°25' E 004°49'0 0.0
2018-Aug-03 01:30N 52°25' E 004°49'0 0.0
2018-Aug-03 01:00N 52°25' E 004°49'0 0.0
2018-Aug-03 00:30N 52°25' E 004°49'0 0.0
2018-Aug-03 00:00N 52°25' E 004°49'0 0.0
2018-Aug-02 23:30N 52°25' E 004°49'0 0.0
2018-Aug-02 23:00N 52°25' E 004°49'0 0.0
2018-Aug-02 22:30N 52°25' E 004°49'0 0.0
2018-Aug-02 22:00N 52°25' E 004°49'0 0.0
2018-Aug-02 21:24N 52°25' E 004°49'0 0.0
2018-Aug-02 21:00N 52°25' E 004°49'0 0.0
2018-Aug-02 20:30N 52°25' E 004°49'0 0.0
2018-Aug-02 20:00N 52°25' E 004°49'0 0.0
2018-Aug-02 19:30N 52°25' E 004°49'0 0.0
2018-Aug-02 18:57N 52°25' E 004°49'0 0.0
2018-Aug-02 18:30N 52°25' E 004°49'0 0.0
2018-Aug-02 18:00N 52°25' E 004°49'0 0.0
2018-Aug-02 17:30N 52°25' E 004°49'0 0.0
2018-Aug-02 17:00N 52°25' E 004°49'0 0.0
2018-Aug-02 16:30N 52°25' E 004°49'0 0.0
2018-Aug-02 16:00N 52°25' E 004°49'0 0.0
2018-Aug-02 15:30N 52°25' E 004°49'0 0.0
2018-Aug-02 14:57N 52°25' E 004°49'0 0.0
2018-Aug-02 14:30N 52°25' E 004°49'0 0.0
2018-Aug-02 14:00N 52°25' E 004°49'0 0.0
2018-Aug-02 13:30N 52°25' E 004°49'0 0.0
2018-Aug-02 13:00N 52°25' E 004°49'0 0.0
2018-Aug-02 12:30N 52°25' E 004°49'0 0.0
2018-Aug-02 12:00N 52°25' E 004°49'0 0.0
2018-Aug-02 11:30N 52°25' E 004°49'0 0.0
2018-Aug-02 11:00N 52°25' E 004°49'0 0.0
2018-Aug-02 10:30N 52°25' E 004°49'0 0.0
2018-Aug-02 10:00N 52°25' E 004°49'0 0.0
2018-Aug-02 09:30N 52°25' E 004°49'0 0.0
2018-Aug-02 08:54N 52°25' E 004°49'0 0.0
2018-Aug-02 08:27N 52°25' E 004°49'0 0.0
2018-Aug-02 08:00N 52°25' E 004°49'0 0.0
2018-Aug-02 07:30N 52°25' E 004°49'0 0.0
2018-Aug-02 07:00N 52°25' E 004°49'0 0.0
2018-Aug-02 06:30N 52°25' E 004°49'0 0.0
2018-Aug-02 06:00N 52°25' E 004°49'0 0.0
2018-Aug-02 05:30N 52°25' E 004°49'0 0.0
2018-Aug-02 05:00N 52°25' E 004°49'0 0.0
2018-Aug-02 04:30N 52°25' E 004°49'0 0.0
2018-Aug-02 04:00N 52°25' E 004°49'0 0.0
2018-Aug-02 03:30N 52°25' E 004°49'0 0.0
2018-Aug-02 03:00N 52°25' E 004°49'0 0.0
2018-Aug-02 02:30N 52°25' E 004°49'0 0.0
2018-Aug-02 02:00N 52°25' E 004°49'0 0.0
2018-Aug-02 01:30N 52°25' E 004°49'0 0.0
2018-Aug-02 01:00N 52°25' E 004°49'0 0.0
2018-Aug-02 00:30N 52°25' E 004°49'0 0.0
2018-Aug-02 00:00N 52°25' E 004°49'0 0.0
2018-Aug-01 23:30N 52°25' E 004°49'0 0.0
2018-Aug-01 23:00N 52°25' E 004°49'0 0.0
2018-Aug-01 22:27N 52°25' E 004°49'0 0.0
2018-Aug-01 22:00N 52°25' E 004°49'0 0.0
2018-Aug-01 21:30N 52°25' E 004°49'0 0.0
2018-Aug-01 21:00N 52°25' E 004°49'0 0.0
2018-Aug-01 20:30N 52°25' E 004°49'0 0.0
2018-Aug-01 19:57N 52°25' E 004°49'0 0.0
2018-Aug-01 19:30N 52°25' E 004°49'0 0.0
2018-Aug-01 18:57N 52°25' E 004°49'0 0.0
2018-Aug-01 18:30N 52°25' E 004°49'0 0.0
2018-Aug-01 18:00N 52°25' E 004°49'0 0.0
2018-Aug-01 17:30N 52°25' E 004°49'0 0.0
2018-Aug-01 17:00N 52°25' E 004°49'0 0.0
2018-Aug-01 16:30N 52°25' E 004°49'0 0.0
2018-Aug-01 16:00N 52°25' E 004°49'0 0.0
2018-Aug-01 15:30N 52°25' E 004°49'0 0.0
2018-Aug-01 15:00N 52°25' E 004°49'0 0.0
2018-Aug-01 14:00N 52°25' E 004°49'0 0.0
2018-Aug-01 13:30N 52°25' E 004°49'0 0.0
2018-Aug-01 13:00N 52°25' E 004°49'0 0.0
2018-Aug-01 12:30N 52°25' E 004°49'0 0.0
2018-Aug-01 12:00N 52°25' E 004°49'0 0.0
2018-Aug-01 11:30N 52°25' E 004°49'0 0.0
2018-Aug-01 11:00N 52°25' E 004°49'0 0.0
2018-Aug-01 10:30N 52°25' E 004°49'0 0.0
2018-Aug-01 09:57N 52°25' E 004°49'0 0.0
2018-Aug-01 09:30N 52°25' E 004°49'0 0.0
2018-Aug-01 09:00N 52°25' E 004°49'0 0.0
2018-Aug-01 08:27N 52°25' E 004°49'0 0.0
2018-Aug-01 08:00N 52°25' E 004°49'0 0.0
2018-Aug-01 07:27N 52°25' E 004°49'0 0.0
2018-Aug-01 07:00N 52°25' E 004°49'0 0.0
2018-Aug-01 06:30N 52°25' E 004°49'0 0.0
2018-Aug-01 06:00N 52°25' E 004°49'0 0.0
2018-Aug-01 05:30N 52°25' E 004°49'0 0.0
2018-Aug-01 05:00N 52°25' E 004°49'0 0.0
2018-Aug-01 04:30N 52°25' E 004°49'0 0.0
2018-Aug-01 04:00N 52°25' E 004°49'0 0.0
2018-Aug-01 03:30N 52°25' E 004°49'0 0.0
2018-Aug-01 03:00N 52°25' E 004°49'0 0.0
2018-Aug-01 02:30N 52°25' E 004°49'0 0.0
2018-Aug-01 02:00N 52°25' E 004°49'0 0.0
2018-Aug-01 01:30N 52°25' E 004°49'0 0.0
2018-Aug-01 01:00N 52°25' E 004°49'0 0.0
2018-Jul-31 22:30N 52°25' E 004°49'0 0.0
2018-Jul-31 22:00N 52°25' E 004°49'0 0.0
2018-Jul-31 21:30N 52°25' E 004°49'0 0.0
2018-Jul-31 21:00N 52°25' E 004°49'0 0.0
2018-Jul-31 20:30N 52°25' E 004°49'0 0.0
2018-Jul-31 20:00N 52°25' E 004°49'0 0.0
2018-Jul-31 19:30N 52°25' E 004°49'0 0.0
2018-Jul-31 19:00N 52°25' E 004°49'0 0.0
2018-Jul-31 18:30N 52°25' E 004°49'0 0.0
2018-Jul-31 18:00N 52°25' E 004°49'0 0.0
2018-Jul-31 17:30N 52°25' E 004°49'0 0.0
2018-Jul-31 17:00N 52°25' E 004°49'0 0.0
2018-Jul-31 16:30N 52°25' E 004°49'0 0.0
2018-Jul-31 15:57N 52°25' E 004°49'0 0.0
2018-Jul-31 15:30N 52°25' E 004°49'0 0.0
2018-Jul-31 15:00N 52°25' E 004°49'0 0.0
2018-Jul-31 14:30N 52°25' E 004°49'0 0.0
2018-Jul-31 14:00N 52°25' E 004°49'0 0.0
2018-Jul-31 13:30N 52°25' E 004°49'0 0.0
2018-Jul-31 13:00N 52°25' E 004°49'0 0.0
2018-Jul-31 12:30N 52°25' E 004°49'0 0.0
2018-Jul-31 12:00N 52°25' E 004°49'0 0.0
2018-Jul-31 11:30N 52°25' E 004°49'0 0.0
2018-Jul-31 11:00N 52°25' E 004°49'0 0.0
2018-Jul-31 10:30N 52°25' E 004°49'0 0.0
2018-Jul-31 10:00N 52°25' E 004°49'0 0.0
2018-Jul-31 09:30N 52°25' E 004°49'0 0.0
2018-Jul-31 09:00N 52°25' E 004°49'0 0.0
2018-Jul-31 08:30N 52°25' E 004°49'0 0.0
2018-Jul-31 08:00N 52°25' E 004°49'0 0.0
2018-Jul-31 07:30N 52°25' E 004°49'0 0.0
2018-Jul-31 07:00N 52°25' E 004°49'0 0.0
2018-Jul-31 06:30N 52°25' E 004°49'0 0.0
2018-Jul-31 06:00N 52°25' E 004°49'0 0.0
2018-Jul-31 05:27N 52°25' E 004°49'0 0.0
2018-Jul-31 05:00N 52°25' E 004°49'0 0.0
2018-Jul-31 04:30N 52°25' E 004°49'0 0.0
2018-Jul-31 04:00N 52°25' E 004°49'0 0.0
2018-Jul-31 03:30N 52°25' E 004°49'0 0.0
2018-Jul-31 03:00N 52°25' E 004°49'0 0.0
2018-Jul-31 02:30N 52°25' E 004°49'0 0.0
2018-Jul-31 02:00N 52°25' E 004°49'0 0.0
2018-Jul-31 01:27N 52°25' E 004°49'0 0.0
2018-Jul-31 01:00N 52°25' E 004°49'0 0.0
2018-Jul-31 00:30N 52°25' E 004°49'0 0.0
2018-Jul-31 00:00N 52°25' E 004°49'0 0.0
2018-Jul-30 23:30N 52°25' E 004°49'0 0.0
2018-Jul-30 23:00N 52°25' E 004°49'0 0.0
2018-Jul-30 22:30N 52°25' E 004°49'0 0.0
2018-Jul-30 22:00N 52°25' E 004°49'0 0.0
2018-Jul-30 21:30N 52°25' E 004°49'0 0.0
2018-Jul-30 21:00N 52°25' E 004°49'0 0.0
2018-Jul-30 20:30N 52°25' E 004°49'0 0.0
2018-Jul-30 20:00N 52°25' E 004°49'0 0.0
2018-Jul-30 19:30N 52°25' E 004°49'0 0.0
2018-Jul-30 19:00N 52°25' E 004°49'  

Dump ship's entire track history